createdAt,value
2022-10-20T00:00:54.749Z,98776.34
2022-10-20T00:03:21.465Z,98782.38
2022-10-20T00:05:48.087Z,98787.53
2022-10-20T00:08:14.724Z,98799.53
2022-10-20T00:10:41.344Z,98791.81
2022-10-20T00:13:08.183Z,98799.53
2022-10-20T00:15:35.015Z,98796.13
2022-10-20T00:18:01.638Z,98802.97
2022-10-20T00:20:28.230Z,98811.53
2022-10-20T00:22:54.771Z,98815.00
2022-10-20T00:25:21.615Z,98808.13
2022-10-20T00:27:48.261Z,98811.59
2022-10-20T00:30:14.839Z,98820.19
2022-10-20T00:32:41.429Z,98824.47
2022-10-20T00:35:08.221Z,98823.59
2022-10-20T00:37:34.846Z,98825.31
2022-10-20T00:40:01.450Z,98833.91
2022-10-20T00:42:28.107Z,98833.91
2022-10-20T00:44:54.756Z,98833.06
2022-10-20T00:47:40.265Z,98833.94
2022-10-20T00:50:12.668Z,98838.22
2022-10-20T00:52:39.978Z,98839.97
2022-10-20T00:55:07.624Z,98851.16
2022-10-20T00:57:34.894Z,98846.84
2022-10-20T01:00:02.097Z,98858.88
2022-10-20T01:02:30.065Z,98852.84
2022-10-20T01:04:56.640Z,98852.84
2022-10-20T01:07:23.245Z,98854.59
2022-10-20T01:09:50.191Z,98858.00
2022-10-20T01:12:25.187Z,98861.47
2022-10-20T01:15:12.011Z,98861.47
2022-10-20T01:17:38.760Z,98859.75
2022-10-20T01:20:18.990Z,98868.31
2022-10-20T01:22:48.370Z,98860.63
2022-10-20T01:25:33.212Z,98875.25
2022-10-20T01:28:04.099Z,98875.25
2022-10-20T01:30:32.898Z,98885.56
2022-10-20T01:33:02.330Z,98887.28
2022-10-20T01:35:36.376Z,98885.56
2022-10-20T01:38:03.079Z,98887.28
2022-10-20T01:40:36.570Z,98885.56
2022-10-20T01:43:06.398Z,98883.84
2022-10-20T01:45:34.951Z,98891.59
2022-10-20T01:48:02.864Z,98886.44
2022-10-20T01:50:29.629Z,98892.44
2022-10-20T01:53:00.264Z,98902.78
2022-10-20T01:55:26.866Z,98901.91
2022-10-20T01:58:05.424Z,98912.22
2022-10-20T02:00:34.720Z,98906.19
2022-10-20T02:03:04.037Z,98917.41
2022-10-20T02:05:33.800Z,98921.66
2022-10-20T02:08:07.382Z,98925.13
2022-10-20T02:10:39.245Z,98922.53
2022-10-20T02:13:07.182Z,98926.81
2022-10-20T02:15:37.024Z,98931.97
2022-10-20T02:18:06.527Z,98935.44
2022-10-20T02:20:33.300Z,98939.72
2022-10-20T02:23:00.725Z,98936.28
2022-10-20T02:25:28.233Z,98948.28
2022-10-20T02:27:55.533Z,98941.44
2022-10-20T02:30:22.410Z,98949.19
2022-10-20T02:32:52.641Z,98946.59
2022-10-20T02:35:21.936Z,98949.16
2022-10-20T02:37:48.517Z,98954.31
2022-10-20T02:40:15.668Z,98961.19
2022-10-20T02:42:43.392Z,98955.16
2022-10-20T02:45:10.381Z,98957.75
2022-10-20T02:47:37.211Z,98962.91
2022-10-20T02:50:04.276Z,98959.47
2022-10-20T02:52:30.897Z,98962.06
2022-10-20T02:54:57.627Z,98969.78
2022-10-20T02:57:24.209Z,98968.94
2022-10-20T02:59:50.893Z,98966.34
2022-10-20T03:02:17.504Z,98974.09
2022-10-20T03:04:44.218Z,98983.53
2022-10-20T03:07:11.254Z,98976.66
2022-10-20T03:09:37.892Z,98979.25
2022-10-20T03:12:04.557Z,98974.94
2022-10-20T03:14:31.147Z,98979.25
2022-10-20T03:16:57.731Z,98992.97
2022-10-20T03:19:24.314Z,98993.81
2022-10-20T03:21:50.872Z,98998.97
2022-10-20T03:24:17.531Z,98997.25
2022-10-20T03:26:44.058Z,98998.97
2022-10-20T03:29:10.621Z,98992.13
2022-10-20T03:31:37.270Z,99003.31
2022-10-20T03:34:03.851Z,99007.59
2022-10-20T03:36:30.416Z,99005.00
2022-10-20T03:38:57.021Z,99004.16
2022-10-20T03:41:23.559Z,99012.72
2022-10-20T03:43:50.238Z,99017.91
2022-10-20T03:46:16.800Z,99011.88
2022-10-20T03:48:43.362Z,99022.19
2022-10-20T03:51:12.066Z,99023.03
2022-10-20T03:53:38.646Z,99026.50
2022-10-20T03:56:09.513Z,99028.19
2022-10-20T03:58:36.304Z,99030.75
2022-10-20T04:01:03.463Z,99037.63
2022-10-20T04:03:30.161Z,99040.22
2022-10-20T04:05:56.761Z,99045.38
2022-10-20T04:08:23.337Z,99047.09
2022-10-20T04:10:49.881Z,99053.94
2022-10-20T04:13:16.517Z,99053.94
2022-10-20T04:15:43.041Z,99045.34
2022-10-20T04:18:09.649Z,99057.38
2022-10-20T04:20:37.423Z,99064.25
2022-10-20T04:23:05.976Z,99059.94
2022-10-20T04:25:32.561Z,99071.09
2022-10-20T04:27:59.973Z,99071.13
2022-10-20T04:30:26.599Z,99071.13
2022-10-20T04:32:53.133Z,99076.19
2022-10-20T04:35:19.708Z,99083.88
2022-10-20T04:37:46.248Z,99079.59
2022-10-20T04:40:12.810Z,99088.16
2022-10-20T04:42:39.387Z,99093.28
2022-10-20T04:45:06.246Z,99094.97
2022-10-20T04:47:33.991Z,99095.81
2022-10-20T04:50:00.731Z,99100.97
2022-10-20T04:52:28.450Z,99103.50
2022-10-20T04:54:55.041Z,99103.53
2022-10-20T04:57:21.603Z,99110.38
2022-10-20T04:59:48.144Z,99107.84
2022-10-20T05:02:14.675Z,99111.28
2022-10-20T05:04:41.238Z,99114.69
2022-10-20T05:07:07.796Z,99115.50
2022-10-20T05:09:34.436Z,99118.94
2022-10-20T05:12:01.077Z,99118.97
2022-10-20T05:14:27.731Z,99124.16
2022-10-20T05:16:54.300Z,99124.16
2022-10-20T05:19:20.895Z,99125.03
2022-10-20T05:21:47.500Z,99132.75
2022-10-20T05:24:18.260Z,99136.22
2022-10-20T05:26:47.832Z,99129.34
2022-10-20T05:29:14.465Z,99136.22
2022-10-20T05:31:42.187Z,99137.94
2022-10-20T05:34:09.437Z,99145.69
2022-10-20T05:36:36.062Z,99150.00
2022-10-20T05:39:02.900Z,99151.75
2022-10-20T05:41:33.391Z,99158.66
2022-10-20T05:44:04.584Z,99150.97
2022-10-20T05:46:32.458Z,99163.84
2022-10-20T05:48:59.930Z,99163.84
2022-10-20T05:51:28.526Z,99165.56
2022-10-20T05:53:55.563Z,99168.97
2022-10-20T05:56:22.542Z,99165.56
2022-10-20T05:58:49.530Z,99180.16
2022-10-20T06:01:24.226Z,99175.03
2022-10-20T06:03:52.321Z,99182.75
2022-10-20T06:06:19.532Z,99182.69
2022-10-20T06:08:46.580Z,99174.13
2022-10-20T06:11:13.702Z,99179.22
2022-10-20T06:13:40.412Z,99187.81
2022-10-20T06:16:09.167Z,99190.34
2022-10-20T06:18:38.744Z,99190.38
2022-10-20T06:21:10.023Z,99191.28
2022-10-20T06:23:36.607Z,99194.72
2022-10-20T06:26:04.940Z,99193.84
2022-10-20T06:28:32.412Z,99199.88
2022-10-20T06:30:59.674Z,99211.03
2022-10-20T06:33:29.260Z,99207.59
2022-10-20T06:36:01.735Z,99209.34
2022-10-20T06:38:28.621Z,99211.94
2022-10-20T06:40:55.322Z,99213.63
2022-10-20T06:43:22.099Z,99211.91
2022-10-20T06:45:55.730Z,99208.47
2022-10-20T06:48:22.450Z,99216.22
2022-10-20T06:50:49.098Z,99215.34
2022-10-20T06:53:15.830Z,99217.06
2022-10-20T06:55:42.411Z,99199.91
2022-10-20T06:58:08.973Z,99210.22
2022-10-20T07:00:35.540Z,99223.97
2022-10-20T07:03:02.190Z,99213.69
2022-10-20T07:05:30.038Z,99222.31
2022-10-20T07:07:56.581Z,99229.22
2022-10-20T07:10:23.120Z,99224.88
2022-10-20T07:12:49.756Z,99224.88
2022-10-20T07:15:16.404Z,99220.53
2022-10-20T07:17:42.971Z,99221.34
2022-10-20T07:20:10.067Z,99224.75
2022-10-20T07:22:38.562Z,99229.94
2022-10-20T07:25:06.994Z,99237.69
2022-10-20T07:27:34.145Z,99234.28
2022-10-20T07:30:00.784Z,99235.16
2022-10-20T07:32:27.453Z,99245.47
2022-10-20T07:34:54.285Z,99241.13
2022-10-20T07:37:20.913Z,99250.44
2022-10-20T07:39:47.529Z,99251.31
2022-10-20T07:42:14.168Z,99253.91
2022-10-20T07:44:40.879Z,99255.66
2022-10-20T07:47:07.441Z,99247.91
2022-10-20T07:49:49.464Z,99251.31
2022-10-20T07:52:16.719Z,99247.16
2022-10-20T07:54:43.384Z,99253.22
2022-10-20T07:57:10.054Z,99248.13
2022-10-20T07:59:36.665Z,99248.13
2022-10-20T08:02:03.967Z,99241.31
2022-10-20T08:04:31.697Z,99248.19
2022-10-20T08:06:59.406Z,99243.91
2022-10-20T08:09:25.999Z,99246.50
2022-10-20T08:11:55.394Z,99247.38
2022-10-20T08:14:22.846Z,99250.84
2022-10-20T08:19:37.148Z,99253.34
2022-10-20T08:22:03.933Z,99267.91
2022-10-20T08:24:30.529Z,99255.00
2022-10-20T08:26:57.107Z,99255.81
2022-10-20T08:29:23.665Z,99264.44
2022-10-20T08:31:50.200Z,99268.72
2022-10-20T08:34:16.793Z,99254.97
2022-10-20T08:36:43.391Z,99270.47
2022-10-20T08:39:09.962Z,99273.94
2022-10-20T08:42:02.902Z,99262.75
2022-10-20T08:44:27.434Z,99274.78
2022-10-20T08:46:54.378Z,99271.28
2022-10-20T08:49:32.939Z,99268.66
2022-10-20T08:51:59.996Z,99263.53
2022-10-20T08:54:26.576Z,99280.66
2022-10-20T08:56:53.329Z,99275.44
2022-10-20T08:59:28.555Z,99292.47
2022-10-20T09:01:56.105Z,99282.19
2022-10-20T09:04:25.158Z,99297.63
2022-10-20T09:07:00.458Z,99294.19
2022-10-20T09:09:28.986Z,99296.75
2022-10-20T09:11:59.795Z,99303.63
2022-10-20T09:14:26.663Z,99296.78
2022-10-20T09:17:00.240Z,99303.63
2022-10-20T09:19:27.643Z,99301.00
2022-10-20T09:22:05.712Z,99292.53
2022-10-20T09:24:35.149Z,99310.47
2022-10-20T09:27:22.121Z,99310.47
2022-10-20T09:29:48.883Z,99302.72
2022-10-20T09:35:25.121Z,99307.03
2022-10-20T09:37:57.587Z,99308.66
2022-10-20T09:40:26.309Z,99304.44
2022-10-20T09:42:54.893Z,99310.47
2022-10-20T09:45:32.582Z,99304.47
2022-10-20T09:48:01.625Z,99302.78
2022-10-20T09:50:34.192Z,99308.75
2022-10-20T09:53:01.910Z,99315.53
2022-10-20T09:55:33.278Z,99312.94
2022-10-20T09:58:01.581Z,99312.06
2022-10-20T10:00:38.776Z,99321.53
2022-10-20T10:03:09.046Z,99309.47
2022-10-20T10:05:35.832Z,99319.78
2022-10-20T10:08:02.428Z,99324.91
2022-10-20T10:10:30.608Z,99311.19
2022-10-20T10:13:00.905Z,99316.31
2022-10-20T10:15:30.126Z,99317.13
2022-10-20T10:17:57.370Z,99318.03
2022-10-20T10:20:33.723Z,99320.56
2022-10-20T10:23:17.124Z,99319.69
2022-10-20T10:25:43.710Z,99323.16
2022-10-20T10:28:28.663Z,99314.66
2022-10-20T10:31:18.617Z,99323.25
2022-10-20T10:33:45.488Z,99312.94
2022-10-20T10:36:18.656Z,99319.78
2022-10-20T10:38:45.201Z,99324.09
2022-10-20T10:41:30.162Z,99322.34
2022-10-20T10:44:10.309Z,99319.81
2022-10-20T10:46:41.010Z,99325.91
2022-10-20T10:49:07.636Z,99318.25
2022-10-20T10:51:52.767Z,99320.75
2022-10-20T10:54:19.499Z,99321.66
2022-10-20T10:56:50.911Z,99321.69
2022-10-20T10:59:17.460Z,99317.34
2022-10-20T11:01:58.975Z,99328.50
2022-10-20T11:04:28.664Z,99325.84
2022-10-20T11:07:15.963Z,99323.16
2022-10-20T11:09:48.932Z,99321.47
2022-10-20T11:12:34.437Z,99322.34
2022-10-20T11:15:09.923Z,99323.22
2022-10-20T11:18:02.553Z,99334.34
2022-10-20T11:20:32.168Z,99326.63
2022-10-20T11:23:24.476Z,99324.94
2022-10-20T11:26:11.224Z,99336.94
2022-10-20T11:28:45.569Z,99331.78
2022-10-20T11:31:34.063Z,99331.84
2022-10-20T11:34:11.868Z,99335.22
2022-10-20T11:36:49.953Z,99337.81
2022-10-20T11:39:38.002Z,99343.84
2022-10-20T11:42:18.796Z,99340.44
2022-10-20T11:44:46.465Z,99338.72
2022-10-20T11:47:15.149Z,99340.44
2022-10-20T11:49:41.998Z,99331.97
2022-10-20T11:52:27.480Z,99339.72
2022-10-20T11:55:12.487Z,99330.34
2022-10-20T11:57:45.202Z,99344.00
2022-10-20T12:00:30.294Z,99345.75
2022-10-20T12:03:15.448Z,99347.44
2022-10-20T12:05:51.004Z,99345.63
2022-10-20T12:08:30.283Z,99342.22
2022-10-20T12:11:29.789Z,99350.78
2022-10-20T12:14:14.587Z,99346.56
2022-10-20T12:16:59.464Z,99355.09
2022-10-20T12:19:31.054Z,99354.22
2022-10-20T12:22:15.995Z,99353.41
2022-10-20T12:25:02.505Z,99357.69
2022-10-20T12:27:30.516Z,99357.66
2022-10-20T12:29:58.623Z,99359.38
2022-10-20T12:32:35.061Z,99353.34
2022-10-20T12:35:10.845Z,99367.09
2022-10-20T12:37:40.234Z,99367.97
2022-10-20T12:40:09.058Z,99366.19
2022-10-20T12:42:40.188Z,99366.19
2022-10-20T12:45:08.262Z,99366.19
2022-10-20T12:47:37.017Z,99363.63
2022-10-20T12:50:22.492Z,99368.78
2022-10-20T12:52:49.186Z,99375.66
2022-10-20T12:55:18.539Z,99375.69
2022-10-20T12:57:45.905Z,99373.22
2022-10-20T13:00:22.031Z,99378.38
2022-10-20T13:02:55.774Z,99377.59
2022-10-20T13:05:41.850Z,99375.03
2022-10-20T13:08:18.024Z,99371.56
2022-10-20T13:10:44.787Z,99381.81
2022-10-20T13:13:11.360Z,99380.03
2022-10-20T13:15:43.679Z,99391.16
2022-10-20T13:18:13.351Z,99386.03
2022-10-20T13:20:45.960Z,99382.63
2022-10-20T13:23:13.959Z,99380.00
2022-10-20T13:25:43.861Z,99385.97
2022-10-20T13:28:13.280Z,99391.94
2022-10-20T13:30:58.268Z,99395.38
2022-10-20T13:33:38.826Z,99401.38
2022-10-20T13:36:33.166Z,99404.84
2022-10-20T13:39:08.448Z,99406.56
2022-10-20T13:41:43.438Z,99410.88
2022-10-20T13:44:35.846Z,99412.53
2022-10-20T13:47:21.022Z,99405.66
2022-10-20T13:49:59.664Z,99409.94
2022-10-20T13:52:29.224Z,99408.25
2022-10-20T13:54:56.611Z,99413.34
2022-10-20T13:57:28.182Z,99415.09
2022-10-20T13:59:55.950Z,99415.97
2022-10-20T14:02:32.952Z,99409.84
2022-10-20T14:05:07.591Z,99420.97
2022-10-20T14:07:43.789Z,99421.88
2022-10-20T14:10:28.583Z,99424.31
2022-10-20T14:12:55.881Z,99421.69
2022-10-20T14:15:30.433Z,99422.50
2022-10-20T14:18:07.393Z,99420.84
2022-10-20T14:20:37.424Z,99430.16
2022-10-20T14:23:04.726Z,99427.53
2022-10-20T14:25:32.186Z,99424.81
2022-10-20T14:27:59.340Z,99420.50
2022-10-20T14:30:26.676Z,99423.00
2022-10-20T14:32:53.787Z,99425.50
2022-10-20T14:35:43.623Z,99427.19
2022-10-20T14:38:16.024Z,99418.63
2022-10-20T14:40:48.767Z,99431.44
2022-10-20T14:43:18.208Z,99418.56
2022-10-20T14:45:59.335Z,99431.38
2022-10-20T14:48:33.640Z,99435.59
2022-10-20T14:51:00.212Z,99433.09
2022-10-20T14:53:27.425Z,99429.63
2022-10-20T14:55:54.988Z,99432.16
2022-10-20T14:58:56.137Z,99429.59
2022-10-20T15:01:24.826Z,99430.41
2022-10-20T15:06:42.245Z,99429.59
2022-10-20T15:09:18.207Z,99435.56
2022-10-20T15:11:44.988Z,99436.31
2022-10-20T15:14:15.799Z,99429.44
2022-10-20T15:16:46.307Z,99434.66
2022-10-20T15:19:19.009Z,99452.50
2022-10-20T15:21:46.017Z,99458.44
2022-10-20T15:24:12.588Z,99459.22
2022-10-20T15:26:39.160Z,99452.25
2022-10-20T15:29:06.405Z,99456.41
2022-10-20T15:31:33.038Z,99453.00
2022-10-20T15:33:59.640Z,99460.66
2022-10-20T15:36:29.561Z,99479.38
2022-10-20T15:38:56.600Z,99480.94
2022-10-20T15:41:25.325Z,99482.50
2022-10-20T15:43:52.287Z,99476.56
2022-10-20T15:46:19.110Z,99484.16
2022-10-20T15:48:46.072Z,99470.31
2022-10-20T15:51:19.349Z,99480.44
2022-10-20T15:53:48.501Z,99485.50
2022-10-20T15:56:15.206Z,99494.22
2022-10-20T15:58:41.943Z,99487.25
2022-10-20T16:01:09.540Z,99482.97
2022-10-20T16:03:40.702Z,99492.13
2022-10-20T16:06:07.823Z,99497.38
2022-10-20T16:08:35.467Z,99505.88
2022-10-20T16:11:02.991Z,99503.31
2022-10-20T16:13:29.570Z,99504.34
2022-10-20T16:15:56.205Z,99505.97
2022-10-20T16:18:22.844Z,99510.19
2022-10-20T16:20:49.550Z,99512.69
2022-10-20T16:23:16.242Z,99508.94
2022-10-20T16:25:42.893Z,99508.78
2022-10-20T16:28:09.807Z,99512.16
2022-10-20T16:30:36.445Z,99507.09
2022-10-20T16:33:03.175Z,99510.28
2022-10-20T16:35:29.807Z,99506.78
2022-10-20T16:37:56.480Z,99505.88
2022-10-20T16:40:23.078Z,99518.31
2022-10-20T16:42:49.659Z,99519.97
2022-10-20T16:45:16.402Z,99514.97
2022-10-20T16:47:43.113Z,99522.44
2022-10-20T16:50:09.931Z,99530.13
2022-10-20T16:52:36.567Z,99518.34
2022-10-20T16:55:03.286Z,99540.19
2022-10-20T16:57:33.577Z,99529.91
2022-10-20T17:00:00.477Z,99519.69
2022-10-20T17:02:27.137Z,99524.00
2022-10-20T17:04:53.754Z,99512.97
2022-10-20T17:07:20.414Z,99520.53
2022-10-20T17:09:47.048Z,99526.63
2022-10-20T17:12:13.968Z,99524.91
2022-10-20T17:14:43.642Z,99530.06
2022-10-20T17:17:10.586Z,99533.38
2022-10-20T17:19:37.213Z,99541.88
2022-10-20T17:22:03.832Z,99532.47
2022-10-20T17:24:30.450Z,99533.41
2022-10-20T17:26:57.049Z,99526.50
2022-10-20T17:29:25.956Z,99531.78
2022-10-20T17:31:52.964Z,99529.16
2022-10-20T17:34:19.627Z,99533.97
2022-10-20T17:36:46.220Z,99535.66
2022-10-20T17:39:14.168Z,99538.91
2022-10-20T17:41:40.814Z,99547.38
2022-10-20T17:44:08.448Z,99543.09
2022-10-20T17:46:35.399Z,99556.63
2022-10-20T17:49:02.252Z,99561.59
2022-10-20T17:51:31.959Z,99566.59
2022-10-20T17:54:01.180Z,99555.53
2022-10-20T17:56:32.419Z,99547.03
2022-10-20T17:58:59.854Z,99560.50
2022-10-20T18:01:28.586Z,99567.22
2022-10-20T18:04:05.612Z,99573.50
2022-10-20T18:06:34.614Z,99557.78
2022-10-20T18:09:04.048Z,99574.88
2022-10-20T18:11:31.663Z,99572.28
2022-10-20T18:14:00.011Z,99572.00
2022-10-20T18:16:27.687Z,99573.66
2022-10-20T18:21:25.403Z,99568.69
2022-10-20T18:23:55.946Z,99567.78
2022-10-20T18:26:22.734Z,99572.84
2022-10-20T18:28:50.093Z,99578.97
2022-10-20T18:31:18.423Z,99569.44
2022-10-20T18:33:45.371Z,99583.31
2022-10-20T18:36:13.200Z,99576.63
2022-10-20T18:38:40.847Z,99580.84
2022-10-20T18:41:11.002Z,99579.91
2022-10-20T18:43:38.311Z,99577.56
2022-10-20T18:46:05.655Z,99587.09
2022-10-20T18:48:34.350Z,99585.19
2022-10-20T18:51:01.725Z,99583.41
2022-10-20T18:53:29.457Z,99588.56
2022-10-20T18:56:00.044Z,99598.78
2022-10-20T18:58:27.382Z,99599.44
2022-10-20T19:00:58.026Z,99602.06
2022-10-20T19:03:24.871Z,99601.84
2022-10-20T19:05:57.105Z,99599.94
2022-10-20T19:08:23.728Z,99594.81
2022-10-20T19:10:50.338Z,99614.44
2022-10-20T19:13:17.121Z,99618.44
2022-10-20T19:15:43.690Z,99615.69
2022-10-20T19:18:10.419Z,99619.28
2022-10-20T19:20:37.075Z,99617.59
2022-10-20T19:23:03.671Z,99623.75
2022-10-20T19:25:30.292Z,99622.63
2022-10-20T19:27:58.337Z,99629.53
2022-10-20T19:30:25.024Z,99620.03
2022-10-20T19:32:52.976Z,99633.09
2022-10-20T19:35:19.629Z,99628.53
2022-10-20T19:37:46.292Z,99631.84
2022-10-20T19:40:12.952Z,99636.06
2022-10-20T19:42:39.903Z,99633.66
2022-10-20T19:45:06.869Z,99645.56
2022-10-20T19:47:33.442Z,99645.50
2022-10-20T19:50:00.045Z,99646.88
2022-10-20T19:52:26.689Z,99644.50
2022-10-20T19:54:53.429Z,99645.22
2022-10-20T19:57:20.140Z,99648.41
2022-10-20T19:59:46.839Z,99634.81
2022-10-20T20:02:13.471Z,99651.88
2022-10-20T20:04:40.521Z,99635.53
2022-10-20T20:07:07.337Z,99646.88
2022-10-20T20:09:34.062Z,99640.19
2022-10-20T20:12:00.680Z,99638.34
2022-10-20T20:14:27.311Z,99639.94
2022-10-20T20:16:53.904Z,99650.16
2022-10-20T20:19:20.596Z,99633.50
2022-10-20T20:21:47.314Z,99645.13
2022-10-20T20:24:14.717Z,99646.97
2022-10-20T20:26:41.477Z,99651.88
2022-10-20T20:29:08.216Z,99652.75
2022-10-20T20:31:34.888Z,99649.16
2022-10-20T20:34:01.696Z,99646.50
2022-10-20T20:36:28.505Z,99642.31
2022-10-20T20:38:57.428Z,99646.66
2022-10-20T20:41:26.125Z,99624.50
2022-10-20T20:43:52.705Z,99641.13
2022-10-20T20:46:20.650Z,99643.06
2022-10-20T20:48:47.379Z,99638.59
2022-10-20T20:51:14.306Z,99634.97
2022-10-20T20:53:41.097Z,99641.13
2022-10-20T20:56:11.826Z,99638.66
2022-10-20T20:58:38.727Z,99652.94
2022-10-20T21:01:09.908Z,99659.69
2022-10-20T21:03:36.838Z,99654.66
2022-10-20T21:06:10.844Z,99656.41
2022-10-20T21:08:39.079Z,99659.69
2022-10-20T21:11:10.479Z,99660.72
2022-10-20T21:13:37.490Z,99659.91
2022-10-20T21:16:14.488Z,99662.38
2022-10-20T21:18:42.205Z,99656.56
2022-10-20T21:21:08.851Z,99656.28
2022-10-20T21:23:35.658Z,99669.81
2022-10-20T21:26:02.307Z,99671.56
2022-10-20T21:28:28.908Z,99661.34
2022-10-20T21:30:58.735Z,99660.41
2022-10-20T21:33:27.840Z,99655.28
2022-10-20T21:35:58.881Z,99668.19
2022-10-20T21:38:29.240Z,99655.34
2022-10-20T21:41:00.959Z,99662.38
2022-10-20T21:43:28.866Z,99660.59
2022-10-20T21:45:55.413Z,99661.50
2022-10-20T21:48:22.049Z,99663.16
2022-10-20T21:50:48.746Z,99655.59
2022-10-20T21:53:16.073Z,99661.66
2022-10-20T21:55:42.712Z,99661.78
2022-10-20T21:58:09.308Z,99651.53
2022-10-20T22:00:35.887Z,99659.16
2022-10-20T22:03:02.589Z,99659.25
2022-10-20T22:05:29.248Z,99656.06
2022-10-20T22:07:55.800Z,99651.06
2022-10-20T22:10:22.642Z,99656.31
2022-10-20T22:12:49.369Z,99662.22
2022-10-20T22:15:16.067Z,99661.41
2022-10-20T22:17:42.737Z,99663.03
2022-10-20T22:20:09.738Z,99665.63
2022-10-20T22:22:36.501Z,99652.94
2022-10-20T22:25:03.472Z,99662.38
2022-10-20T22:27:31.796Z,99656.44
2022-10-20T22:30:09.302Z,99664.22
2022-10-20T22:32:36.271Z,99660.72
2022-10-20T22:35:03.178Z,99664.22
2022-10-20T22:37:29.995Z,99664.22
2022-10-20T22:39:56.615Z,99666.13
2022-10-20T22:42:24.883Z,99669.63
2022-10-20T22:44:51.839Z,99659.41
2022-10-20T22:47:18.440Z,99654.38
2022-10-20T22:49:45.044Z,99663.94
2022-10-20T22:52:11.802Z,99672.63
2022-10-20T22:54:38.549Z,99663.28
2022-10-20T22:57:05.101Z,99667.63
2022-10-20T22:59:31.783Z,99676.28
2022-10-20T23:01:58.449Z,99672.00
2022-10-20T23:04:25.058Z,99665.19
2022-10-20T23:06:51.669Z,99669.97
2022-10-20T23:09:18.384Z,99665.69
2022-10-20T23:11:45.030Z,99670.47
2022-10-20T23:14:11.580Z,99683.09
2022-10-20T23:16:38.227Z,99670.38
2022-10-20T23:19:04.862Z,99673.03
2022-10-20T23:21:31.586Z,99673.03
2022-10-20T23:23:58.335Z,99662.72
2022-10-20T23:26:24.941Z,99671.91
2022-10-20T23:28:51.577Z,99665.94
2022-10-20T23:31:19.635Z,99658.53
2022-10-20T23:33:47.066Z,99667.03
2022-10-20T23:36:14.575Z,99676.41
2022-10-20T23:38:41.995Z,99669.69
2022-10-20T23:41:08.873Z,99665.41
2022-10-20T23:46:07.902Z,99666.28
2022-10-20T23:48:34.912Z,99673.81
2022-10-20T23:51:01.684Z,99679.88
2022-10-20T23:53:28.257Z,99682.25
2022-10-20T23:55:54.972Z,99691.53
2022-10-20T23:58:23.167Z,99690.16
